createdAt,value
2023-04-10T00:00:22.965Z,19.00
2023-04-10T00:03:08.924Z,18.25
2023-04-10T00:05:56.778Z,17.48
2023-04-10T00:08:42.214Z,18.25
2023-04-10T00:11:28.958Z,17.27
2023-04-10T00:14:14.721Z,18.98
2023-04-10T00:17:00.625Z,16.33
2023-04-10T00:19:46.346Z,15.88
2023-04-10T00:22:32.208Z,21.20
2023-04-10T00:25:17.871Z,20.05
2023-04-10T00:28:03.333Z,22.55
2023-04-10T00:30:49.607Z,21.50
2023-04-10T00:33:35.189Z,21.45
2023-04-10T00:36:20.922Z,19.50
2023-04-10T00:39:08.142Z,20.02
2023-04-10T00:41:53.726Z,16.92
2023-04-10T00:44:40.848Z,12.52
2023-04-10T00:47:27.530Z,20.13
2023-04-10T00:50:14.179Z,12.30
2023-04-10T00:52:59.943Z,14.13
2023-04-10T00:55:46.136Z,15.27
2023-04-10T00:58:31.802Z,13.65
2023-04-10T01:01:17.427Z,19.35
2023-04-10T01:04:03.513Z,12.75
2023-04-10T01:07:23.794Z,16.55
2023-04-10T01:10:53.231Z,17.42
2023-04-10T01:13:52.654Z,16.23
2023-04-10T01:17:09.705Z,21.75
2023-04-10T01:20:29.489Z,17.52
2023-04-10T01:27:10.761Z,16.25
2023-04-10T01:30:00.946Z,20.02
2023-04-10T01:32:48.117Z,16.50
2023-04-10T01:35:35.584Z,16.05
2023-04-10T01:38:23.481Z,13.55
2023-04-10T01:41:09.146Z,14.40
2023-04-10T01:43:55.365Z,13.68
2023-04-10T01:46:43.347Z,13.27
2023-04-10T01:49:30.904Z,13.07
2023-04-10T01:52:26.469Z,10.40
2023-04-10T01:55:24.294Z,11.07
2023-04-10T01:58:15.062Z,10.38
2023-04-10T02:01:01.296Z,13.85
2023-04-10T02:03:48.104Z,15.75
2023-04-10T02:06:51.264Z,14.18
2023-04-10T02:09:48.518Z,17.88
2023-04-10T02:12:53.137Z,14.20
2023-04-10T02:15:45.916Z,14.93
2023-04-10T02:18:35.333Z,22.05
2023-04-10T02:21:21.451Z,15.25
2023-04-10T02:24:07.623Z,16.83
2023-04-10T02:26:53.813Z,17.85
2023-04-10T02:29:39.290Z,16.45
2023-04-10T02:32:26.653Z,19.83
2023-04-10T02:35:31.709Z,15.07
2023-04-10T02:38:17.551Z,20.98
2023-04-10T02:41:03.641Z,20.80
2023-04-10T02:43:49.927Z,15.95
2023-04-10T02:46:37.433Z,16.35
2023-04-10T02:49:23.888Z,19.50
2023-04-10T02:52:10.390Z,16.00
2023-04-10T02:54:56.382Z,18.40
2023-04-10T02:57:44.839Z,17.88
2023-04-10T03:00:30.934Z,15.05
2023-04-10T03:03:31.874Z,17.58
2023-04-10T03:06:17.884Z,13.23
2023-04-10T03:09:05.943Z,18.92
2023-04-10T03:11:52.466Z,12.48
2023-04-10T03:14:37.960Z,13.05
2023-04-10T03:17:23.556Z,16.42
2023-04-10T03:20:10.825Z,15.30
2023-04-10T03:22:56.348Z,16.90
2023-04-10T03:25:44.415Z,20.38
2023-04-10T03:28:32.347Z,12.43
2023-04-10T03:31:18.277Z,11.88
2023-04-10T03:34:04.206Z,11.35
2023-04-10T03:36:49.945Z,17.08
2023-04-10T03:39:36.639Z,15.55
2023-04-10T03:42:22.370Z,18.92
2023-04-10T03:45:09.009Z,16.42
2023-04-10T03:47:54.730Z,19.67
2023-04-10T03:50:40.665Z,22.95
2023-04-10T03:53:26.116Z,39.53
2023-04-10T03:56:13.345Z,42.38
2023-04-10T03:59:00.168Z,31.55
2023-04-10T04:01:46.188Z,22.23
2023-04-10T04:04:32.713Z,29.15
2023-04-10T04:07:33.614Z,24.25
2023-04-10T04:10:28.789Z,25.58
2023-04-10T04:13:22.158Z,27.98
2023-04-10T04:16:15.526Z,29.27
2023-04-10T04:19:13.550Z,25.88
2023-04-10T04:22:10.805Z,31.58
2023-04-10T04:25:15.256Z,25.30
2023-04-10T04:28:20.048Z,21.95
2023-04-10T04:31:31.647Z,20.52
2023-04-10T04:34:43.883Z,35.60
2023-04-10T04:37:52.663Z,23.75
2023-04-10T04:40:57.032Z,25.33
2023-04-10T04:44:04.592Z,28.73
2023-04-10T04:47:16.600Z,38.00
2023-04-10T04:50:11.513Z,31.48
2023-04-10T04:53:29.367Z,41.83
2023-04-10T04:56:33.548Z,41.60
2023-04-10T04:59:39.253Z,40.58
2023-04-10T05:02:53.723Z,32.10
2023-04-10T05:05:59.753Z,29.20
2023-04-10T05:08:56.198Z,37.72
2023-04-10T05:12:05.802Z,39.72
2023-04-10T05:15:11.341Z,28.48
2023-04-10T05:18:13.273Z,31.98
2023-04-10T05:21:19.113Z,28.73
2023-04-10T05:24:24.217Z,24.58
2023-04-10T05:27:36.505Z,26.30
2023-04-10T05:30:35.107Z,35.92
2023-04-10T05:33:40.615Z,34.83
2023-04-10T05:36:49.441Z,36.53
2023-04-10T05:39:50.322Z,37.15
2023-04-10T05:42:45.848Z,36.90
2023-04-10T05:45:44.815Z,38.20
2023-04-10T05:48:49.450Z,33.45
2023-04-10T05:51:40.518Z,40.40
2023-04-10T05:54:36.434Z,31.05
2023-04-10T05:57:50.708Z,34.67
2023-04-10T06:00:55.683Z,34.22
2023-04-10T06:04:04.879Z,28.13
2023-04-10T06:06:50.766Z,32.20
2023-04-10T06:09:36.345Z,29.58
2023-04-10T06:12:25.437Z,33.65
2023-04-10T06:15:11.286Z,37.17
2023-04-10T06:17:57.284Z,33.05
2023-04-10T06:20:43.259Z,24.17
2023-04-10T06:23:29.013Z,25.20
2023-04-10T06:26:14.829Z,26.67
2023-04-10T06:29:00.741Z,32.55
2023-04-10T06:31:46.347Z,23.95
2023-04-10T06:34:32.477Z,22.80
2023-04-10T06:37:32.692Z,30.08
2023-04-10T06:40:20.452Z,28.90
2023-04-10T06:43:06.093Z,33.15
2023-04-10T06:45:56.146Z,28.10
2023-04-10T06:48:41.767Z,18.35
2023-04-10T06:51:27.687Z,30.83
2023-04-10T06:54:14.138Z,28.05
2023-04-10T06:57:00.005Z,22.77
2023-04-10T06:59:45.643Z,24.58
2023-04-10T07:02:31.496Z,24.17
2023-04-10T07:05:17.332Z,26.33
2023-04-10T07:08:02.970Z,24.88
2023-04-10T07:10:48.706Z,22.88
2023-04-10T07:13:35.042Z,19.75
2023-04-10T07:16:20.883Z,19.73
2023-04-10T07:19:06.612Z,21.10
2023-04-10T07:21:52.144Z,16.85
2023-04-10T07:24:37.711Z,22.48
2023-04-10T07:27:24.163Z,20.60
2023-04-10T07:30:12.920Z,15.65
2023-04-10T07:32:59.464Z,17.83
2023-04-10T07:35:45.632Z,17.95
2023-04-10T07:38:31.923Z,22.92
2023-04-10T07:41:17.821Z,14.73
2023-04-10T07:44:03.746Z,10.65
2023-04-10T07:46:51.621Z,8.02
2023-04-10T07:49:37.152Z,11.68
2023-04-10T07:52:22.878Z,6.82
2023-04-10T07:55:08.821Z,9.73
2023-04-10T07:57:54.788Z,17.15
2023-04-10T08:00:40.652Z,6.75
2023-04-10T08:03:26.484Z,15.25
2023-04-10T08:06:12.363Z,8.48
2023-04-10T08:08:58.046Z,13.43
2023-04-10T08:11:43.852Z,8.73
2023-04-10T08:14:29.307Z,10.98
2023-04-10T08:17:15.226Z,11.38
2023-04-10T08:20:01.068Z,7.35
2023-04-10T08:22:46.709Z,9.52
2023-04-10T08:25:32.224Z,7.22
2023-04-10T08:28:18.914Z,14.43
2023-04-10T08:31:04.832Z,6.82
2023-04-10T08:33:51.472Z,7.95
2023-04-10T08:36:37.197Z,10.50
2023-04-10T08:39:22.809Z,9.48
2023-04-10T08:42:08.283Z,21.67
2023-04-10T08:44:53.892Z,9.98
2023-04-10T08:47:45.999Z,10.70
2023-04-10T08:50:35.574Z,16.70
2023-04-10T08:53:24.203Z,8.27
2023-04-10T08:56:16.147Z,8.43
2023-04-10T08:59:02.916Z,11.23
2023-04-10T09:01:48.943Z,9.52
2023-04-10T09:04:34.833Z,9.45
2023-04-10T09:07:22.559Z,10.43
2023-04-10T09:10:09.236Z,12.43
2023-04-10T09:12:55.307Z,9.23
2023-04-10T09:15:59.935Z,12.23
2023-04-10T09:18:50.794Z,9.30
2023-04-10T09:21:36.455Z,9.55
2023-04-10T09:24:24.266Z,11.55
2023-04-10T09:27:10.297Z,15.57
2023-04-10T09:29:55.675Z,11.13
2023-04-10T09:32:44.273Z,11.70
2023-04-10T09:35:38.508Z,11.98
2023-04-10T09:38:25.130Z,9.40
2023-04-10T09:41:12.197Z,8.77
2023-04-10T09:44:11.411Z,11.02
2023-04-10T09:47:18.239Z,12.02
2023-04-10T09:50:05.059Z,16.70
2023-04-10T09:52:57.670Z,11.80
2023-04-10T09:55:43.563Z,13.02
2023-04-10T09:58:29.491Z,23.65
2023-04-10T10:01:15.952Z,21.42
2023-04-10T10:04:03.956Z,14.68
2023-04-10T10:06:49.668Z,21.95
2023-04-10T10:09:37.065Z,12.55
2023-04-10T10:12:43.575Z,11.85
2023-04-10T10:15:50.588Z,10.27
2023-04-10T10:19:08.016Z,10.57
2023-04-10T10:21:56.429Z,11.23
2023-04-10T10:24:47.218Z,10.50
2023-04-10T10:27:37.638Z,11.68
2023-04-10T10:30:30.056Z,10.50
2023-04-10T10:33:18.147Z,10.35
2023-04-10T10:36:04.739Z,22.85
2023-04-10T10:39:07.978Z,11.75
2023-04-10T10:42:20.749Z,9.73
2023-04-10T10:45:19.246Z,12.45
2023-04-10T10:48:06.325Z,12.18
2023-04-10T10:50:59.825Z,13.73
2023-04-10T10:53:45.984Z,11.45
2023-04-10T10:56:35.513Z,14.48
2023-04-10T11:00:00.289Z,12.45
2023-04-10T11:03:06.379Z,14.93
2023-04-10T11:05:56.084Z,14.05
2023-04-10T11:08:46.193Z,12.80
2023-04-10T11:11:47.972Z,11.65
2023-04-10T11:14:33.759Z,10.95
2023-04-10T11:17:50.512Z,12.02
2023-04-10T11:21:12.465Z,10.02
2023-04-10T11:23:57.916Z,10.25
2023-04-10T11:26:43.735Z,10.13
2023-04-10T11:29:29.146Z,15.55
2023-04-10T11:32:15.890Z,13.85
2023-04-10T11:35:03.623Z,9.88
2023-04-10T11:40:53.088Z,8.20
2023-04-10T11:43:38.707Z,7.30
2023-04-10T11:46:24.598Z,7.25
2023-04-10T11:49:10.972Z,5.63
2023-04-10T11:51:56.818Z,6.80
2023-04-10T11:54:48.726Z,5.97
2023-04-10T11:57:35.677Z,6.25
2023-04-10T12:00:24.371Z,6.53
2023-04-10T12:03:10.059Z,8.23
2023-04-10T12:05:55.722Z,9.15
2023-04-10T12:08:51.492Z,15.15
2023-04-10T12:11:37.091Z,8.15
2023-04-10T12:14:28.901Z,10.43
2023-04-10T12:17:16.142Z,11.10
2023-04-10T12:20:01.992Z,10.20
2023-04-10T12:22:47.704Z,12.60
2023-04-10T12:25:34.594Z,11.57
2023-04-10T12:28:21.648Z,11.77
2023-04-10T12:31:08.777Z,16.85
2023-04-10T12:33:57.206Z,12.68
2023-04-10T12:36:52.446Z,12.80
2023-04-10T12:39:38.286Z,13.50
2023-04-10T12:42:26.509Z,12.45
2023-04-10T12:45:13.328Z,11.43
2023-04-10T12:47:59.237Z,12.07
2023-04-10T12:50:49.152Z,11.02
2023-04-10T12:53:44.405Z,10.95
2023-04-10T12:56:41.924Z,11.73
2023-04-10T12:59:30.132Z,12.10
2023-04-10T13:02:18.168Z,12.43
2023-04-10T13:05:07.953Z,15.15
2023-04-10T13:07:53.477Z,11.57
2023-04-10T13:10:40.076Z,11.10
2023-04-10T13:13:26.645Z,12.60
2023-04-10T13:16:13.565Z,10.32
2023-04-10T13:19:00.494Z,14.95
2023-04-10T13:21:46.335Z,12.25
2023-04-10T13:24:31.904Z,12.15
2023-04-10T13:27:17.612Z,10.93
2023-04-10T13:30:03.832Z,11.02
2023-04-10T13:32:49.675Z,17.77
2023-04-10T13:35:35.142Z,18.35
2023-04-10T13:38:21.481Z,12.77
2023-04-10T13:41:07.444Z,11.48
2023-04-10T13:43:53.452Z,14.13
2023-04-10T13:46:39.046Z,12.30
2023-04-10T13:49:25.215Z,9.88
2023-04-10T13:52:11.146Z,14.25
2023-04-10T13:54:56.723Z,10.27
2023-04-10T13:57:43.290Z,8.05
2023-04-10T14:00:28.754Z,13.27
2023-04-10T14:03:14.400Z,10.52
2023-04-10T14:06:00.174Z,9.68
2023-04-10T14:08:46.031Z,12.23
2023-04-10T14:11:31.890Z,12.15
2023-04-10T14:14:17.886Z,12.65
2023-04-10T14:17:03.841Z,12.60
2023-04-10T14:19:51.771Z,13.68
2023-04-10T14:22:37.448Z,13.38
2023-04-10T14:25:23.388Z,11.43
2023-04-10T14:28:16.813Z,16.30
2023-04-10T14:31:04.127Z,14.07
2023-04-10T14:33:49.493Z,16.63
2023-04-10T14:36:34.992Z,17.20
2023-04-10T14:39:20.697Z,15.90
2023-04-10T14:42:06.546Z,12.07
2023-04-10T14:44:52.333Z,7.82
2023-04-10T14:47:38.237Z,15.23
2023-04-10T14:50:24.139Z,11.18
2023-04-10T14:53:10.085Z,12.13
2023-04-10T14:55:55.903Z,12.38
2023-04-10T14:58:42.681Z,16.75
2023-04-10T15:01:28.591Z,16.02
2023-04-10T15:04:14.906Z,13.93
2023-04-10T15:07:00.893Z,12.55
2023-04-10T15:09:47.122Z,16.38
2023-04-10T15:12:33.080Z,10.82
2023-04-10T15:15:18.657Z,15.52
2023-04-10T15:18:04.254Z,13.38
2023-04-10T15:20:50.041Z,11.77
2023-04-10T15:23:35.439Z,14.05
2023-04-10T15:26:21.121Z,16.00
2023-04-10T15:29:07.313Z,17.38
2023-04-10T15:31:53.074Z,15.45
2023-04-10T15:34:39.035Z,16.48
2023-04-10T15:37:24.745Z,20.05
2023-04-10T15:40:10.664Z,17.92
2023-04-10T15:42:56.421Z,15.93
2023-04-10T15:45:41.975Z,17.92
2023-04-10T15:48:28.538Z,18.45
2023-04-10T15:51:14.392Z,15.95
2023-04-10T15:53:59.806Z,18.17
2023-04-10T15:56:46.390Z,14.50
2023-04-10T15:59:33.394Z,20.98
2023-04-10T16:02:18.904Z,15.73
2023-04-10T16:05:06.141Z,15.50
2023-04-10T16:07:52.176Z,15.88
2023-04-10T16:10:37.724Z,17.65
2023-04-10T16:13:23.461Z,14.60
2023-04-10T16:16:15.205Z,14.20
2023-04-10T16:19:01.822Z,13.93
2023-04-10T16:21:47.588Z,12.57
2023-04-10T16:24:33.498Z,16.13
2023-04-10T16:27:19.191Z,12.43
2023-04-10T16:30:06.005Z,15.70
2023-04-10T16:32:51.992Z,22.02
2023-04-10T16:35:38.065Z,12.45
2023-04-10T16:38:24.528Z,20.63
2023-04-10T16:41:11.828Z,14.15
2023-04-10T16:43:57.483Z,21.80
2023-04-10T16:46:43.088Z,20.55
2023-04-10T16:49:28.740Z,34.47
2023-04-10T16:52:14.408Z,38.60
2023-04-10T16:55:00.233Z,42.47
2023-04-10T16:57:46.165Z,58.55
2023-04-10T17:00:32.087Z,50.33
2023-04-10T17:03:20.003Z,31.38
2023-04-10T17:06:06.201Z,28.92
2023-04-10T17:08:52.034Z,38.97
2023-04-10T17:11:37.793Z,40.38
2023-04-10T17:14:23.983Z,36.63
2023-04-10T17:17:12.005Z,31.33
2023-04-10T17:20:04.970Z,30.58
2023-04-10T17:22:50.614Z,37.95
2023-04-10T17:25:39.460Z,21.15
2023-04-10T17:28:25.415Z,30.30
2023-04-10T17:31:14.534Z,27.77
2023-04-10T17:34:00.238Z,38.35
2023-04-10T17:36:46.772Z,30.38
2023-04-10T17:39:32.353Z,27.52
2023-04-10T17:42:21.189Z,21.80
2023-04-10T17:45:10.571Z,32.42
2023-04-10T17:47:59.050Z,21.85
2023-04-10T17:50:44.952Z,16.00
2023-04-10T17:53:30.883Z,10.80
2023-04-10T17:56:20.177Z,13.60
2023-04-10T17:59:09.473Z,12.23
2023-04-10T18:01:58.031Z,11.10
2023-04-10T18:04:46.267Z,10.25
2023-04-10T18:07:31.891Z,10.38
2023-04-10T18:10:17.501Z,12.10
2023-04-10T18:13:04.170Z,13.65
2023-04-10T18:15:51.130Z,18.52
2023-04-10T18:18:36.733Z,15.63
2023-04-10T18:21:22.411Z,20.40
2023-04-10T18:24:17.397Z,22.00
2023-04-10T18:27:12.436Z,22.33
2023-04-10T18:30:05.247Z,18.73
2023-04-10T18:32:51.610Z,14.73
2023-04-10T18:36:10.229Z,14.30
2023-04-10T18:38:57.502Z,14.63
2023-04-10T18:41:43.360Z,12.75
2023-04-10T18:44:30.584Z,11.75
2023-04-10T18:47:17.177Z,9.13
2023-04-10T18:50:04.844Z,9.68
2023-04-10T18:52:51.444Z,9.15
2023-04-10T18:55:37.488Z,12.05
2023-04-10T18:58:23.683Z,10.15
2023-04-10T19:01:14.448Z,9.13
2023-04-10T19:04:00.697Z,10.75
2023-04-10T19:06:50.759Z,13.13
2023-04-10T19:09:36.573Z,14.38
2023-04-10T19:12:22.392Z,19.67
2023-04-10T19:15:10.765Z,20.58
2023-04-10T19:17:56.375Z,13.23
2023-04-10T19:20:49.755Z,13.18
2023-04-10T19:23:36.905Z,18.27
2023-04-10T19:26:22.629Z,17.20
2023-04-10T19:29:08.311Z,15.23
2023-04-10T19:31:54.070Z,20.63
2023-04-10T19:34:39.669Z,26.30
2023-04-10T19:37:25.048Z,19.77
2023-04-10T19:40:11.026Z,26.00
2023-04-10T19:42:59.349Z,28.13
2023-04-10T19:45:45.144Z,24.75
2023-04-10T19:48:30.623Z,25.95
2023-04-10T19:51:16.403Z,25.17
2023-04-10T19:54:02.207Z,30.42
2023-04-10T19:56:47.866Z,35.45
2023-04-10T19:59:33.155Z,23.50
2023-04-10T20:02:18.848Z,38.65
2023-04-10T20:05:05.330Z,19.00
2023-04-10T20:07:51.048Z,15.80
2023-04-10T20:10:36.434Z,12.73
2023-04-10T20:13:21.925Z,19.17
2023-04-10T20:16:08.166Z,18.30
2023-04-10T20:18:55.060Z,17.27
2023-04-10T20:21:41.031Z,18.45
2023-04-10T20:24:26.915Z,22.25
2023-04-10T20:27:16.777Z,19.80
2023-04-10T20:30:02.519Z,18.08
2023-04-10T20:32:48.540Z,33.53
2023-04-10T20:35:34.331Z,40.90
2023-04-10T20:38:19.905Z,34.58
2023-04-10T20:41:05.646Z,29.55
2023-04-10T20:43:51.169Z,33.00
2023-04-10T20:46:36.805Z,29.83
2023-04-10T20:49:23.658Z,21.27
2023-04-10T20:52:09.230Z,16.73
2023-04-10T20:54:54.957Z,20.17
2023-04-10T20:57:40.430Z,21.55
2023-04-10T21:00:26.126Z,18.80
2023-04-10T21:03:12.203Z,16.92
2023-04-10T21:05:57.991Z,18.08
2023-04-10T21:08:43.678Z,16.70
2023-04-10T21:11:29.274Z,18.88
2023-04-10T21:14:14.974Z,13.80
2023-04-10T21:17:01.460Z,22.17
2023-04-10T21:19:47.094Z,20.85
2023-04-10T21:22:33.082Z,18.77
2023-04-10T21:25:18.517Z,41.50
2023-04-10T21:28:04.358Z,24.70
2023-04-10T21:30:50.093Z,27.73
2023-04-10T21:33:35.479Z,29.73
2023-04-10T21:36:21.305Z,36.90
2023-04-10T21:39:08.550Z,34.53
2023-04-10T21:41:54.052Z,36.10
2023-04-10T21:44:39.578Z,41.22
2023-04-10T21:47:25.313Z,45.35
2023-04-10T21:50:11.188Z,44.30
2023-04-10T21:52:57.109Z,30.25
2023-04-10T21:55:42.634Z,27.35
2023-04-10T21:58:28.212Z,26.05
2023-04-10T22:01:13.784Z,30.00
2023-04-10T22:03:59.480Z,18.85
2023-04-10T22:06:45.485Z,25.25
2023-04-10T22:09:31.114Z,21.83
2023-04-10T22:12:16.658Z,17.30
2023-04-10T22:15:03.184Z,18.73
2023-04-10T22:17:48.843Z,18.08
2023-04-10T22:20:34.235Z,15.23
2023-04-10T22:23:19.791Z,18.80
2023-04-10T22:26:06.176Z,16.67
2023-04-10T22:28:51.710Z,21.58
2023-04-10T22:31:37.158Z,22.13
2023-04-10T22:34:23.016Z,23.98
2023-04-10T22:37:08.363Z,20.52
2023-04-10T22:39:55.331Z,25.52
2023-04-10T22:42:42.032Z,20.13
2023-04-10T22:45:27.788Z,20.95
2023-04-10T22:48:13.600Z,19.92
2023-04-10T22:50:59.014Z,24.40
2023-04-10T22:53:44.645Z,30.67
2023-04-10T22:56:31.164Z,22.25
2023-04-10T22:59:17.783Z,22.92
2023-04-10T23:02:03.719Z,17.42
2023-04-10T23:04:49.601Z,18.50
2023-04-10T23:07:35.115Z,22.08
2023-04-10T23:10:20.759Z,23.55
2023-04-10T23:13:06.034Z,16.58
2023-04-10T23:15:55.917Z,20.75
2023-04-10T23:18:41.742Z,18.88
2023-04-10T23:21:27.327Z,15.65
2023-04-10T23:24:12.746Z,24.55
2023-04-10T23:27:17.212Z,19.67
2023-04-10T23:30:03.570Z,20.08
2023-04-10T23:32:49.259Z,20.70
2023-04-10T23:35:34.906Z,18.50
2023-04-10T23:38:20.681Z,18.73
2023-04-10T23:41:06.935Z,19.70
2023-04-10T23:43:52.452Z,17.08
2023-04-10T23:46:37.993Z,19.55
2023-04-10T23:49:23.482Z,22.23
2023-04-10T23:52:10.046Z,18.88
2023-04-10T23:54:56.174Z,22.52
2023-04-10T23:57:41.641Z,25.10
